createdAt,value
2022-07-25T00:00:20.138Z,1010.58
2022-07-25T00:01:20.424Z,1010.61
2022-07-25T00:02:20.567Z,1010.60
2022-07-25T00:03:21.149Z,1010.63
2022-07-25T00:04:21.410Z,1010.61
2022-07-25T00:05:21.547Z,1010.60
2022-07-25T00:06:21.738Z,1010.60
2022-07-25T00:07:23.372Z,1010.55
2022-07-25T00:08:20.647Z,1010.54
2022-07-25T00:09:20.943Z,1010.56
2022-07-25T00:10:23.142Z,1010.57
2022-07-25T00:11:21.531Z,1010.55
2022-07-25T00:12:23.716Z,1010.49
2022-07-25T00:13:22.103Z,1010.46
2022-07-25T00:14:24.293Z,1010.44
2022-07-25T00:15:22.667Z,1010.45
2022-07-25T00:16:24.941Z,1010.44
2022-07-25T00:17:25.008Z,1010.44
2022-07-25T00:18:23.635Z,1010.50
2022-07-25T00:19:25.814Z,1010.40
2022-07-25T00:20:25.995Z,1010.44
2022-07-25T00:21:26.175Z,1010.45
2022-07-25T00:22:26.358Z,1010.41
2022-07-25T00:23:27.039Z,1010.40
2022-07-25T00:24:25.423Z,1010.41
2022-07-25T00:25:25.725Z,1010.40
2022-07-25T00:26:27.917Z,1010.33
2022-07-25T00:27:28.097Z,1010.39
2022-07-25T00:28:29.738Z,1010.33
2022-07-25T00:29:26.883Z,1010.35
2022-07-25T00:30:30.527Z,1010.33
2022-07-25T00:31:30.741Z,1010.29
2022-07-25T00:32:30.899Z,1010.25
2022-07-25T00:33:29.830Z,1010.24
2022-07-25T00:34:29.218Z,1010.24
2022-07-25T00:35:30.554Z,1010.15
2022-07-25T00:36:30.743Z,1010.19
2022-07-25T00:37:29.128Z,1010.16
2022-07-25T00:38:29.438Z,1010.18
2022-07-25T00:39:29.757Z,1010.18
2022-07-25T00:40:31.943Z,1010.19
2022-07-25T00:41:30.319Z,1010.19
2022-07-25T00:42:32.527Z,1010.18
2022-07-25T00:43:30.915Z,1010.19
2022-07-25T00:44:31.220Z,1010.16
2022-07-25T00:45:31.522Z,1010.13
2022-07-25T00:46:33.768Z,1010.20
2022-07-25T00:47:33.907Z,1010.16
2022-07-25T00:48:33.285Z,1010.16
2022-07-25T00:49:33.680Z,1010.10
2022-07-25T00:50:33.825Z,1010.11
2022-07-25T00:51:35.093Z,1010.09
2022-07-25T00:52:35.281Z,1010.08
2022-07-25T00:53:33.755Z,1010.06
2022-07-25T00:54:34.011Z,1009.99
2022-07-25T00:55:34.267Z,1009.99
2022-07-25T00:56:36.454Z,1009.95
2022-07-25T00:57:36.599Z,1009.95
2022-07-25T00:58:35.110Z,1009.94
2022-07-25T00:59:35.412Z,1009.94
2022-07-25T01:00:35.725Z,1009.93
2022-07-25T01:01:38.940Z,1009.88
2022-07-25T01:02:36.224Z,1009.88
2022-07-25T01:03:36.461Z,1009.87
2022-07-25T01:04:36.702Z,1009.83
2022-07-25T01:05:37.040Z,1009.79
2022-07-25T01:06:41.217Z,1009.79
2022-07-25T01:07:37.620Z,1009.75
2022-07-25T01:08:37.934Z,1009.70
2022-07-25T01:09:38.235Z,1009.68
2022-07-25T01:10:38.544Z,1009.68
2022-07-25T01:11:41.511Z,1009.61
2022-07-25T01:12:39.082Z,1009.56
2022-07-25T01:13:39.385Z,1009.60
2022-07-25T01:14:39.703Z,1009.60
2022-07-25T01:15:41.945Z,1009.58
2022-07-25T01:16:40.178Z,1009.57
2022-07-25T01:17:40.479Z,1009.61
2022-07-25T01:18:40.789Z,1009.52
2022-07-25T01:19:42.979Z,1009.50
2022-07-25T01:20:43.154Z,1009.51
2022-07-25T01:21:43.324Z,1009.45
2022-07-25T01:22:43.528Z,1009.44
2022-07-25T01:23:44.198Z,1009.43
2022-07-25T01:24:44.386Z,1009.43
2022-07-25T01:25:44.566Z,1009.43
2022-07-25T01:26:45.219Z,1009.42
2022-07-25T01:27:45.427Z,1009.40
2022-07-25T01:28:45.593Z,1009.39
2022-07-25T01:29:45.748Z,1009.37
2022-07-25T01:30:46.000Z,1009.38
2022-07-25T01:31:48.584Z,1009.34
2022-07-25T01:32:46.820Z,1009.35
2022-07-25T01:33:47.003Z,1009.30
2022-07-25T01:34:47.162Z,1009.31
2022-07-25T01:35:47.317Z,1009.25
2022-07-25T01:36:48.098Z,1009.21
2022-07-25T01:37:48.193Z,1009.20
2022-07-25T01:38:46.702Z,1009.20
2022-07-25T01:39:47.013Z,1009.17
2022-07-25T01:40:49.184Z,1009.12
2022-07-25T01:41:51.326Z,1009.10
2022-07-25T01:42:47.873Z,1009.06
2022-07-25T01:43:48.178Z,1009.07
2022-07-25T01:44:48.494Z,1009.05
2022-07-25T01:45:48.877Z,1009.03
2022-07-25T01:46:51.015Z,1009.05
2022-07-25T01:47:49.385Z,1009.03
2022-07-25T01:48:49.831Z,1009.02
2022-07-25T01:49:51.876Z,1009.01
2022-07-25T01:50:52.177Z,1009.00
2022-07-25T01:51:52.544Z,1009.03
2022-07-25T01:52:50.815Z,1008.97
2022-07-25T01:53:53.005Z,1008.94
2022-07-25T01:54:53.183Z,1008.91
2022-07-25T01:55:53.354Z,1008.92
2022-07-25T01:56:53.544Z,1008.92
2022-07-25T01:57:53.727Z,1008.96
2022-07-25T01:58:54.416Z,1008.93
2022-07-25T01:59:54.599Z,1008.84
2022-07-25T02:00:54.786Z,1008.80
2022-07-25T02:01:56.519Z,1008.85
2022-07-25T02:02:55.681Z,1008.86
2022-07-25T02:03:55.861Z,1008.83
2022-07-25T02:04:56.069Z,1008.82
2022-07-25T02:05:56.232Z,1008.76
2022-07-25T02:06:56.996Z,1008.82
2022-07-25T02:07:55.256Z,1008.75
2022-07-25T02:08:57.450Z,1008.81
2022-07-25T02:09:57.632Z,1008.78
2022-07-25T02:10:56.152Z,1008.78
2022-07-25T02:11:57.283Z,1008.74
2022-07-25T02:12:58.585Z,1008.74
2022-07-25T02:13:58.759Z,1008.70
2022-07-25T02:14:57.391Z,1008.69
2022-07-25T02:15:57.697Z,1008.70
2022-07-25T02:17:01.893Z,1008.69
2022-07-25T02:17:58.282Z,1008.67
2022-07-25T02:19:00.470Z,1008.60
2022-07-25T02:19:58.854Z,1008.63
2022-07-25T02:20:59.164Z,1008.69
2022-07-25T02:22:00.418Z,1008.61
2022-07-25T02:22:59.802Z,1008.63
2022-07-25T02:24:01.993Z,1008.62
2022-07-25T02:25:00.365Z,1008.59
2022-07-25T02:26:00.671Z,1008.56
2022-07-25T02:27:04.826Z,1008.54
2022-07-25T02:28:01.286Z,1008.49
2022-07-25T02:29:03.424Z,1008.52
2022-07-25T02:30:01.803Z,1008.53
2022-07-25T02:31:02.170Z,1008.46
2022-07-25T02:32:04.325Z,1008.40
2022-07-25T02:33:02.597Z,1008.39
2022-07-25T02:34:05.152Z,1008.37
2022-07-25T02:35:03.155Z,1008.31
2022-07-25T02:36:05.480Z,1008.36
2022-07-25T02:37:07.638Z,1008.33
2022-07-25T02:38:04.070Z,1008.31
2022-07-25T02:39:06.258Z,1008.25
2022-07-25T02:40:06.427Z,1008.28
2022-07-25T02:41:05.764Z,1008.28
2022-07-25T02:42:08.230Z,1008.22
2022-07-25T02:43:05.525Z,1008.24
2022-07-25T02:44:07.603Z,1008.22
2022-07-25T02:45:07.994Z,1008.20
2022-07-25T02:46:08.263Z,1008.21
2022-07-25T02:47:09.542Z,1008.15
2022-07-25T02:48:06.937Z,1008.15
2022-07-25T02:49:07.306Z,1008.13
2022-07-25T02:50:09.430Z,1008.16
2022-07-25T02:51:08.731Z,1008.10
2022-07-25T02:52:08.806Z,1008.07
2022-07-25T02:53:08.305Z,1008.06
2022-07-25T02:54:08.616Z,1007.96
2022-07-25T02:55:10.800Z,1008.01
2022-07-25T02:56:09.189Z,1008.04
2022-07-25T02:57:10.368Z,1007.93
2022-07-25T02:58:09.751Z,1007.95
2022-07-25T02:59:10.080Z,1008.01
2022-07-25T03:00:10.481Z,1007.99
2022-07-25T03:01:12.649Z,1007.98
2022-07-25T03:02:11.944Z,1007.99
2022-07-25T03:03:11.191Z,1007.96
2022-07-25T03:04:11.773Z,1007.98
2022-07-25T03:05:13.690Z,1007.94
2022-07-25T03:06:12.090Z,1007.94
2022-07-25T03:07:12.409Z,1007.95
2022-07-25T03:08:12.724Z,1007.91
2022-07-25T03:09:13.045Z,1007.84
2022-07-25T03:10:15.230Z,1007.84
2022-07-25T03:11:13.628Z,1007.83
2022-07-25T03:12:13.947Z,1007.82
2022-07-25T03:13:14.255Z,1007.82
2022-07-25T03:14:14.578Z,1007.79
2022-07-25T03:15:16.750Z,1007.76
2022-07-25T03:16:15.172Z,1007.77
2022-07-25T03:17:15.475Z,1007.69
2022-07-25T03:18:15.816Z,1007.70
2022-07-25T03:19:16.152Z,1007.70
2022-07-25T03:20:16.484Z,1007.68
2022-07-25T03:21:18.660Z,1007.68
2022-07-25T03:22:17.078Z,1007.63
2022-07-25T03:23:17.420Z,1007.71
2022-07-25T03:24:17.653Z,1007.62
2022-07-25T03:25:21.772Z,1007.59
2022-07-25T03:26:20.180Z,1007.59
2022-07-25T03:27:20.351Z,1007.58
2022-07-25T03:28:20.574Z,1007.59
2022-07-25T03:29:19.224Z,1007.54
2022-07-25T03:30:20.389Z,1007.55
2022-07-25T03:31:21.673Z,1007.58
2022-07-25T03:32:20.083Z,1007.56
2022-07-25T03:33:22.259Z,1007.60
2022-07-25T03:34:22.458Z,1007.61
2022-07-25T03:35:20.863Z,1007.64
2022-07-25T03:36:23.044Z,1007.64
2022-07-25T03:37:25.204Z,1007.62
2022-07-25T03:38:23.451Z,1007.58
2022-07-25T03:39:23.622Z,1007.56
2022-07-25T03:40:23.294Z,1007.58
2022-07-25T03:41:24.471Z,1007.59
2022-07-25T03:42:26.749Z,1007.57
2022-07-25T03:43:25.317Z,1007.53
2022-07-25T03:44:25.504Z,1007.57
2022-07-25T03:45:25.777Z,1007.54
2022-07-25T03:46:25.953Z,1007.47
2022-07-25T03:47:26.074Z,1007.53
2022-07-25T03:48:26.285Z,1007.48
2022-07-25T03:49:26.920Z,1007.46
2022-07-25T03:50:27.104Z,1007.47
2022-07-25T03:51:27.272Z,1007.42
2022-07-25T03:52:27.464Z,1007.44
2022-07-25T03:53:28.149Z,1007.43
2022-07-25T03:54:26.569Z,1007.30
2022-07-25T03:55:26.838Z,1007.33
2022-07-25T03:56:29.023Z,1007.29
2022-07-25T03:57:29.177Z,1007.29
2022-07-25T03:58:29.361Z,1007.32
2022-07-25T03:59:29.545Z,1007.26
2022-07-25T04:00:30.199Z,1007.24
2022-07-25T04:01:30.453Z,1007.24
2022-07-25T04:02:30.592Z,1007.24
2022-07-25T04:03:30.719Z,1007.23
2022-07-25T04:04:30.910Z,1007.21
2022-07-25T04:05:31.612Z,1007.20
2022-07-25T04:06:31.793Z,1007.15
2022-07-25T04:07:30.338Z,1007.11
2022-07-25T04:08:32.512Z,1007.05
2022-07-25T04:09:31.063Z,1007.10
2022-07-25T04:10:31.060Z,1007.12
2022-07-25T04:11:33.208Z,1007.11
2022-07-25T04:12:33.374Z,1007.07
2022-07-25T04:13:33.549Z,1007.10
2022-07-25T04:14:32.219Z,1007.06
2022-07-25T04:15:34.398Z,1007.08
2022-07-25T04:16:34.654Z,1007.03
2022-07-25T04:17:34.813Z,1007.01
2022-07-25T04:18:34.995Z,1006.97
2022-07-25T04:19:33.591Z,1007.01
2022-07-25T04:20:33.945Z,1007.02
2022-07-25T04:21:34.165Z,1007.02
2022-07-25T04:22:36.346Z,1007.00
2022-07-25T04:23:34.642Z,1007.00
2022-07-25T04:24:36.816Z,1006.96
2022-07-25T04:25:35.106Z,1006.93
2022-07-25T04:26:35.469Z,1006.95
2022-07-25T04:27:39.587Z,1006.93
2022-07-25T04:28:36.029Z,1006.91
2022-07-25T04:29:36.370Z,1006.94
2022-07-25T04:30:36.605Z,1006.93
2022-07-25T04:31:38.841Z,1006.84
2022-07-25T04:32:38.971Z,1006.83
2022-07-25T04:33:37.383Z,1006.86
2022-07-25T04:34:37.614Z,1006.81
2022-07-25T04:35:37.965Z,1006.82
2022-07-25T04:36:40.120Z,1006.77
2022-07-25T04:37:40.295Z,1006.81
2022-07-25T04:38:39.585Z,1006.73
2022-07-25T04:39:40.009Z,1006.68
2022-07-25T04:40:40.166Z,1006.68
2022-07-25T04:41:41.526Z,1006.68
2022-07-25T04:42:41.714Z,1006.64
2022-07-25T04:43:43.622Z,1006.62
2022-07-25T04:44:41.476Z,1006.61
2022-07-25T04:45:40.783Z,1006.61
2022-07-25T04:46:41.157Z,1006.52
2022-07-25T04:47:43.178Z,1006.51
2022-07-25T04:48:41.552Z,1006.50
2022-07-25T04:49:41.770Z,1006.51
2022-07-25T04:50:42.002Z,1006.50
2022-07-25T04:51:44.195Z,1006.50
2022-07-25T04:52:42.491Z,1006.43
2022-07-25T04:53:44.669Z,1006.45
2022-07-25T04:54:42.969Z,1006.44
2022-07-25T04:55:43.198Z,1006.41
2022-07-25T04:56:45.516Z,1006.35
2022-07-25T04:57:45.735Z,1006.37
2022-07-25T04:58:45.916Z,1006.38
2022-07-25T04:59:44.360Z,1006.37
2022-07-25T05:00:44.752Z,1006.36
2022-07-25T05:01:47.035Z,1006.39
2022-07-25T05:02:45.331Z,1006.40
2022-07-25T05:03:49.859Z,1006.41
2022-07-25T05:04:45.778Z,1006.38
2022-07-25T05:05:46.019Z,1006.40
2022-07-25T05:06:46.293Z,1006.36
2022-07-25T05:07:46.594Z,1006.35
2022-07-25T05:08:48.764Z,1006.39
2022-07-25T05:09:47.136Z,1006.40
2022-07-25T05:10:47.426Z,1006.38
2022-07-25T05:11:55.643Z,1006.38
2022-07-25T05:12:49.014Z,1006.39
2022-07-25T05:13:50.247Z,1006.37
2022-07-25T05:14:50.378Z,1006.36
2022-07-25T05:15:48.865Z,1006.35
2022-07-25T05:16:49.235Z,1006.28
2022-07-25T05:17:49.510Z,1006.25
2022-07-25T05:18:49.811Z,1006.24
2022-07-25T05:19:51.985Z,1006.21
2022-07-25T05:20:50.376Z,1006.21
2022-07-25T05:21:50.655Z,1006.17
2022-07-25T05:22:52.850Z,1006.22
2022-07-25T05:23:53.016Z,1006.24
2022-07-25T05:24:51.456Z,1006.19
2022-07-25T05:25:51.698Z,1006.23
2022-07-25T05:26:52.905Z,1006.22
2022-07-25T05:27:53.059Z,1006.20
2022-07-25T05:28:54.408Z,1006.15
2022-07-25T05:29:52.781Z,1006.14
2022-07-25T05:30:53.023Z,1006.04
2022-07-25T05:31:53.379Z,1006.13
2022-07-25T05:32:54.520Z,1006.12
2022-07-25T05:33:55.674Z,1006.10
2022-07-25T05:34:55.885Z,1006.15
2022-07-25T05:35:56.063Z,1006.16
2022-07-25T05:36:56.248Z,1006.15
2022-07-25T05:37:57.915Z,1006.12
2022-07-25T05:38:57.146Z,1006.09
2022-07-25T05:39:57.299Z,1006.07
2022-07-25T05:40:57.485Z,1006.08
2022-07-25T05:41:57.655Z,1006.05
2022-07-25T05:43:02.936Z,1006.13
2022-07-25T05:43:59.587Z,1006.23
2022-07-25T05:44:58.766Z,1006.27
2022-07-25T05:45:58.947Z,1006.28
2022-07-25T05:46:59.282Z,1006.29
2022-07-25T05:47:59.320Z,1006.26
2022-07-25T05:49:00.134Z,1006.24
2022-07-25T05:50:00.227Z,1006.17
2022-07-25T05:51:00.423Z,1006.17
2022-07-25T05:52:00.605Z,1006.13
2022-07-25T05:52:59.360Z,1006.09
2022-07-25T05:54:01.549Z,1006.09
2022-07-25T05:55:01.733Z,1006.08
2022-07-25T05:56:01.875Z,1006.10
2022-07-25T05:57:00.528Z,1006.18
2022-07-25T05:58:02.570Z,1006.19
2022-07-25T05:59:03.046Z,1006.19
2022-07-25T06:00:01.435Z,1006.18
2022-07-25T06:01:01.749Z,1006.18
2022-07-25T06:02:02.239Z,1006.14
2022-07-25T06:03:06.329Z,1006.11
2022-07-25T06:04:04.675Z,1006.00
2022-07-25T06:05:04.643Z,1005.99
2022-07-25T06:06:04.791Z,1005.96
2022-07-25T06:07:05.479Z,1005.91
2022-07-25T06:08:06.887Z,1005.89
2022-07-25T06:09:07.849Z,1005.86
2022-07-25T06:10:04.398Z,1005.81
2022-07-25T06:11:06.591Z,1005.82
2022-07-25T06:12:05.032Z,1005.81
2022-07-25T06:13:09.195Z,1005.81
2022-07-25T06:14:07.618Z,1005.82
2022-07-25T06:15:05.913Z,1005.79
2022-07-25T06:16:08.147Z,1005.78
2022-07-25T06:17:06.490Z,1005.78
2022-07-25T06:18:08.678Z,1005.78
2022-07-25T06:19:08.845Z,1005.81
2022-07-25T06:20:07.359Z,1005.80
2022-07-25T06:21:09.545Z,1005.85
2022-07-25T06:22:07.937Z,1005.83
2022-07-25T06:23:10.190Z,1005.85
2022-07-25T06:24:10.337Z,1005.83
2022-07-25T06:25:12.746Z,1005.88
2022-07-25T06:26:09.123Z,1005.92
2022-07-25T06:27:11.304Z,1005.94
2022-07-25T06:28:12.650Z,1005.94
2022-07-25T06:29:11.017Z,1005.95
2022-07-25T06:30:19.131Z,1005.93
2022-07-25T06:31:11.623Z,1005.96
2022-07-25T06:32:12.761Z,1005.93
2022-07-25T06:33:12.631Z,1005.94
2022-07-25T06:34:11.525Z,1005.90
2022-07-25T06:35:11.689Z,1005.90
2022-07-25T06:36:13.858Z,1005.87
2022-07-25T06:37:13.061Z,1005.81
2022-07-25T06:38:14.499Z,1005.81
2022-07-25T06:39:12.907Z,1005.76
2022-07-25T06:40:13.210Z,1005.75
2022-07-25T06:41:15.401Z,1005.76
2022-07-25T06:42:13.795Z,1005.71
2022-07-25T06:43:17.958Z,1005.73
2022-07-25T06:44:14.369Z,1005.72
2022-07-25T06:45:14.713Z,1005.68
2022-07-25T06:46:14.971Z,1005.67
2022-07-25T06:47:15.259Z,1005.65
2022-07-25T06:48:17.441Z,1005.64
2022-07-25T06:49:15.855Z,1005.61
2022-07-25T06:50:16.152Z,1005.65
2022-07-25T06:51:16.483Z,1005.63
2022-07-25T06:52:16.795Z,1005.55
2022-07-25T06:53:18.979Z,1005.53
2022-07-25T06:54:17.370Z,1005.51
2022-07-25T06:55:17.694Z,1005.51
2022-07-25T06:56:18.013Z,1005.49
2022-07-25T06:57:20.189Z,1005.46
2022-07-25T06:58:20.357Z,1005.41
2022-07-25T06:59:18.809Z,1005.44
2022-07-25T07:00:19.128Z,1005.40
2022-07-25T07:01:19.516Z,1005.38
2022-07-25T07:02:19.699Z,1005.37
2022-07-25T07:03:21.952Z,1005.31
2022-07-25T07:04:20.299Z,1005.32
2022-07-25T07:05:20.610Z,1005.32
2022-07-25T07:06:20.923Z,1005.33
2022-07-25T07:07:23.098Z,1005.31
2022-07-25T07:08:23.257Z,1005.35
2022-07-25T07:09:23.484Z,1005.40
2022-07-25T07:10:23.740Z,1005.33
2022-07-25T07:11:23.846Z,1005.37
2022-07-25T07:12:24.016Z,1005.33
2022-07-25T07:13:24.535Z,1005.34
2022-07-25T07:14:24.959Z,1005.32
2022-07-25T07:15:25.142Z,1005.31
2022-07-25T07:16:25.360Z,1005.23
2022-07-25T07:17:25.495Z,1005.28
2022-07-25T07:18:26.163Z,1005.26
2022-07-25T07:19:26.347Z,1005.29
2022-07-25T07:20:26.526Z,1005.33
2022-07-25T07:21:26.681Z,1005.41
2022-07-25T07:22:27.373Z,1005.40
2022-07-25T07:23:28.941Z,1005.35
2022-07-25T07:24:26.023Z,1005.39
2022-07-25T07:25:28.344Z,1005.42
2022-07-25T07:26:26.583Z,1005.42
2022-07-25T07:27:26.922Z,1005.43
2022-07-25T07:28:27.227Z,1005.39
2022-07-25T07:29:29.547Z,1005.36
2022-07-25T07:30:58.696Z,1005.32
2022-07-25T07:31:31.103Z,1005.29
2022-07-25T07:32:28.365Z,1005.25
2022-07-25T07:33:28.677Z,1005.22
2022-07-25T07:34:28.999Z,1005.29
2022-07-25T07:35:29.314Z,1005.21
2022-07-25T07:36:32.507Z,1005.22
2022-07-25T07:37:35.803Z,1005.20
2022-07-25T07:38:31.236Z,1005.18
2022-07-25T07:39:32.398Z,1005.15
2022-07-25T07:40:32.585Z,1005.13
2022-07-25T07:41:32.791Z,1005.29
2022-07-25T07:42:32.970Z,1005.19
2022-07-25T07:43:33.620Z,1005.26
2022-07-25T07:44:33.816Z,1005.18
2022-07-25T07:45:33.985Z,1005.13
2022-07-25T07:46:34.217Z,1005.08
2022-07-25T07:47:34.873Z,1005.01
2022-07-25T07:48:33.256Z,1005.03
2022-07-25T07:49:37.088Z,1005.17
2022-07-25T07:50:35.594Z,1005.22
2022-07-25T07:51:35.776Z,1005.20
2022-07-25T07:52:35.971Z,1005.12
2022-07-25T07:53:36.815Z,1005.05
2022-07-25T07:54:34.960Z,1005.15
2022-07-25T07:55:37.136Z,1005.16
2022-07-25T07:56:37.324Z,1005.12
2022-07-25T07:57:37.506Z,1005.11
2022-07-25T07:58:37.695Z,1005.14
2022-07-25T07:59:36.478Z,1005.15
2022-07-25T08:00:38.655Z,1004.92
2022-07-25T08:01:38.876Z,1004.94
2022-07-25T08:02:39.071Z,1004.93
2022-07-25T08:03:37.720Z,1004.94
2022-07-25T08:04:39.917Z,1005.03
2022-07-25T08:05:40.088Z,1005.05
2022-07-25T08:06:40.246Z,1004.95
2022-07-25T08:07:40.407Z,1004.89
2022-07-25T08:08:39.170Z,1004.89
2022-07-25T08:09:39.466Z,1004.90
2022-07-25T08:10:41.660Z,1004.90
2022-07-25T08:11:39.967Z,1004.91
2022-07-25T08:12:42.157Z,1004.86
2022-07-25T08:13:40.462Z,1004.79
2022-07-25T08:14:42.663Z,1004.73
2022-07-25T08:15:42.880Z,1004.77
2022-07-25T08:16:43.034Z,1004.82
2022-07-25T08:17:41.587Z,1004.82
2022-07-25T08:18:42.788Z,1004.83
2022-07-25T08:19:42.099Z,1004.85
2022-07-25T08:20:44.270Z,1004.79
2022-07-25T08:21:47.166Z,1004.88
2022-07-25T08:22:42.846Z,1004.85
2022-07-25T08:23:44.106Z,1004.72
2022-07-25T08:24:43.390Z,1004.71
2022-07-25T08:25:45.312Z,1004.74
2022-07-25T08:26:45.519Z,1004.78
2022-07-25T08:27:44.201Z,1004.64
2022-07-25T08:28:46.448Z,1004.74
2022-07-25T08:29:44.728Z,1004.78
2022-07-25T08:30:44.968Z,1004.78
2022-07-25T08:31:47.233Z,1004.85
2022-07-25T08:32:45.557Z,1004.78
2022-07-25T08:33:46.721Z,1004.77
2022-07-25T08:34:46.225Z,1004.77
2022-07-25T08:35:46.341Z,1004.76
2022-07-25T08:36:48.527Z,1004.72
2022-07-25T08:37:46.839Z,1004.71
2022-07-25T08:38:48.042Z,1004.71
2022-07-25T08:39:47.341Z,1004.69
2022-07-25T08:40:47.593Z,1004.69
2022-07-25T08:41:49.772Z,1004.75
2022-07-25T08:42:48.089Z,1004.68
2022-07-25T08:43:49.803Z,1004.76
2022-07-25T08:44:49.508Z,1004.74
2022-07-25T08:45:49.930Z,1004.68
2022-07-25T08:46:51.193Z,1004.65
2022-07-25T08:47:50.506Z,1004.68
2022-07-25T08:48:49.889Z,1004.71
2022-07-25T08:49:50.090Z,1004.70
2022-07-25T08:50:50.333Z,1004.71
2022-07-25T08:51:51.059Z,1004.70
2022-07-25T08:52:50.831Z,1004.70
2022-07-25T08:53:51.982Z,1004.70
2022-07-25T08:54:51.502Z,1004.61
2022-07-25T08:55:51.745Z,1004.63
2022-07-25T08:56:52.911Z,1004.69
2022-07-25T08:57:52.205Z,1004.71
2022-07-25T08:58:53.279Z,1004.79
2022-07-25T08:59:52.767Z,1004.74
2022-07-25T09:00:53.005Z,1004.69
2022-07-25T09:01:55.291Z,1004.71
2022-07-25T09:02:55.463Z,1004.74
2022-07-25T09:03:54.859Z,1004.85
2022-07-25T09:04:54.149Z,1004.77
2022-07-25T09:05:56.309Z,1004.78
2022-07-25T09:06:56.489Z,1004.75
2022-07-25T09:07:56.671Z,1004.80
2022-07-25T09:08:56.163Z,1004.77
2022-07-25T09:09:55.476Z,1004.78
2022-07-25T09:10:55.702Z,1004.78
2022-07-25T09:11:55.942Z,1004.73
2022-07-25T09:12:58.121Z,1004.77
2022-07-25T09:13:57.481Z,1004.78
2022-07-25T09:14:58.627Z,1004.90
2022-07-25T09:15:57.056Z,1004.81
2022-07-25T09:16:57.273Z,1004.75
2022-07-25T09:17:59.463Z,1004.82
2022-07-25T09:18:59.826Z,1004.78
2022-07-25T09:19:58.141Z,1004.85
2022-07-25T09:20:58.362Z,1004.81
2022-07-25T09:21:58.605Z,1004.77
2022-07-25T09:22:59.799Z,1004.75
2022-07-25T09:24:01.120Z,1004.89
2022-07-25T09:25:01.169Z,1004.73
2022-07-25T09:26:01.347Z,1004.90
2022-07-25T09:27:02.018Z,1004.86
2022-07-25T09:28:02.185Z,1004.84
2022-07-25T09:29:04.379Z,1004.87
2022-07-25T09:30:02.600Z,1004.70
2022-07-25T09:31:03.306Z,1004.80
2022-07-25T09:32:03.414Z,1004.89
2022-07-25T09:33:03.578Z,1004.91
2022-07-25T09:34:05.951Z,1004.88
2022-07-25T09:35:03.927Z,1004.94
2022-07-25T09:36:04.609Z,1004.92
2022-07-25T09:37:04.798Z,1005.00
2022-07-25T09:38:04.980Z,1005.03
2022-07-25T09:39:07.162Z,1005.04
2022-07-25T09:40:05.882Z,1005.00
2022-07-25T09:41:04.333Z,1005.05
2022-07-25T09:42:04.585Z,1005.01
2022-07-25T09:43:04.843Z,1005.00
2022-07-25T09:44:06.866Z,1004.96
2022-07-25T09:45:07.290Z,1004.83
2022-07-25T09:46:05.701Z,1004.86
2022-07-25T09:47:05.912Z,1004.87
2022-07-25T09:48:08.094Z,1004.86
2022-07-25T09:49:08.499Z,1004.90
2022-07-25T09:50:08.612Z,1004.81
2022-07-25T09:51:08.822Z,1004.80
2022-07-25T09:52:08.953Z,1004.83
2022-07-25T09:53:09.119Z,1004.91
2022-07-25T09:54:09.250Z,1005.06
2022-07-25T09:55:09.546Z,1005.09
2022-07-25T09:56:10.199Z,1005.06
2022-07-25T09:57:10.379Z,1004.94
2022-07-25T09:58:10.569Z,1004.82
2022-07-25T09:59:12.750Z,1004.90
2022-07-25T10:00:14.944Z,1004.85
2022-07-25T10:01:11.009Z,1004.85
2022-07-25T10:02:13.243Z,1004.72
2022-07-25T10:03:12.437Z,1004.65
2022-07-25T10:04:13.671Z,1004.68
2022-07-25T10:05:12.775Z,1004.63
2022-07-25T10:06:12.918Z,1004.78
2022-07-25T10:07:13.609Z,1004.70
2022-07-25T10:08:13.791Z,1004.62
2022-07-25T10:09:15.234Z,1004.61
2022-07-25T10:10:14.189Z,1004.55
2022-07-25T10:11:14.892Z,1004.61
2022-07-25T10:12:15.072Z,1004.57
2022-07-25T10:13:15.283Z,1004.54
2022-07-25T10:14:16.806Z,1004.53
2022-07-25T10:15:14.130Z,1004.59
2022-07-25T10:16:14.373Z,1004.65
2022-07-25T10:17:16.623Z,1004.71
2022-07-25T10:18:14.952Z,1004.80
2022-07-25T10:19:19.116Z,1004.76
2022-07-25T10:20:15.461Z,1004.75
2022-07-25T10:21:28.033Z,1004.78
2022-07-25T10:22:34.297Z,1004.71
2022-07-25T10:23:17.355Z,1004.87
2022-07-25T10:24:19.689Z,1004.80
2022-07-25T10:25:16.893Z,1004.84
2022-07-25T10:26:19.074Z,1004.86
2022-07-25T10:27:17.423Z,1004.82
2022-07-25T10:28:19.588Z,1004.65
2022-07-25T10:29:18.944Z,1004.81
2022-07-25T10:30:18.253Z,1004.75
2022-07-25T10:31:20.532Z,1004.76
2022-07-25T10:32:22.072Z,1004.65
2022-07-25T10:33:20.801Z,1004.67
2022-07-25T10:34:20.256Z,1004.66
2022-07-25T10:35:19.691Z,1004.63
2022-07-25T10:36:21.881Z,1004.64
2022-07-25T10:37:20.220Z,1004.65
2022-07-25T10:38:22.384Z,1004.63
2022-07-25T10:39:21.570Z,1004.53
2022-07-25T10:40:21.000Z,1004.54
2022-07-25T10:41:21.254Z,1004.50
2022-07-25T10:42:21.492Z,1004.54
2022-07-25T10:43:23.688Z,1004.52
2022-07-25T10:44:22.959Z,1004.58
2022-07-25T10:45:23.722Z,1004.62
2022-07-25T10:46:24.023Z,1004.62
2022-07-25T10:47:24.740Z,1004.67
2022-07-25T10:48:24.986Z,1004.74
2022-07-25T10:49:31.164Z,1004.90
2022-07-25T10:50:53.305Z,1004.65
2022-07-25T10:51:24.899Z,1004.65
2022-07-25T10:52:26.131Z,1004.76
2022-07-25T10:53:26.312Z,1004.88
2022-07-25T10:54:25.766Z,1004.84
2022-07-25T10:55:26.950Z,1004.64
2022-07-25T10:56:25.388Z,1004.66
2022-07-25T10:57:29.794Z,1004.69
2022-07-25T10:58:26.901Z,1004.68
2022-07-25T10:59:26.198Z,1004.91
2022-07-25T11:00:26.448Z,1004.63
2022-07-25T11:01:26.769Z,1004.61
2022-07-25T11:02:30.887Z,1004.62
2022-07-25T11:03:27.211Z,1004.67
2022-07-25T11:04:27.455Z,1004.65
2022-07-25T11:05:29.664Z,1004.64
2022-07-25T11:06:27.964Z,1004.64
2022-07-25T11:07:28.214Z,1004.61
2022-07-25T11:08:30.384Z,1004.59
2022-07-25T11:09:28.769Z,1004.59
2022-07-25T11:10:30.882Z,1004.56
2022-07-25T11:11:29.192Z,1004.48
2022-07-25T11:12:29.429Z,1004.43
2022-07-25T11:13:31.611Z,1004.49
2022-07-25T11:14:29.913Z,1004.57
2022-07-25T11:15:32.104Z,1004.59
2022-07-25T11:16:32.357Z,1004.58
2022-07-25T11:17:32.478Z,1004.52
2022-07-25T11:18:32.665Z,1004.54
2022-07-25T11:19:33.092Z,1004.57
2022-07-25T11:20:33.529Z,1004.61
2022-07-25T11:21:33.688Z,1004.62
2022-07-25T11:22:33.062Z,1004.61
2022-07-25T11:23:32.367Z,1004.66
2022-07-25T11:24:32.969Z,1004.71
2022-07-25T11:25:32.878Z,1004.75
2022-07-25T11:26:35.055Z,1004.79
2022-07-25T11:27:34.841Z,1004.84
2022-07-25T11:28:33.652Z,1004.87
2022-07-25T11:29:35.838Z,1004.91
2022-07-25T11:30:36.016Z,1004.92
2022-07-25T11:31:34.639Z,1004.93
2022-07-25T11:32:38.704Z,1004.89
2022-07-25T11:33:38.618Z,1004.88
2022-07-25T11:34:37.210Z,1004.88
2022-07-25T11:35:37.401Z,1004.79
2022-07-25T11:36:37.574Z,1004.75
2022-07-25T11:37:39.044Z,1004.82
2022-07-25T11:38:37.943Z,1004.81
2022-07-25T11:39:38.635Z,1004.83
2022-07-25T11:40:38.815Z,1004.77
2022-07-25T11:41:38.991Z,1004.78
2022-07-25T11:42:39.586Z,1004.79
2022-07-25T11:43:39.375Z,1004.84
2022-07-25T11:44:44.125Z,1004.80
2022-07-25T11:45:41.287Z,1004.81
2022-07-25T11:46:40.408Z,1004.80
2022-07-25T11:47:41.928Z,1004.78
2022-07-25T11:48:40.852Z,1004.78
2022-07-25T11:49:41.518Z,1004.79
2022-07-25T11:50:40.796Z,1004.84
2022-07-25T11:51:41.943Z,1004.85
2022-07-25T11:52:42.214Z,1004.84
2022-07-25T11:53:42.336Z,1004.85
2022-07-25T11:54:42.520Z,1004.88
2022-07-25T11:55:43.344Z,1004.85
2022-07-25T11:56:43.900Z,1004.79
2022-07-25T11:57:43.191Z,1004.77
2022-07-25T11:58:43.931Z,1004.71
2022-07-25T11:59:44.099Z,1004.73
2022-07-25T12:00:44.287Z,1004.69
2022-07-25T12:01:42.840Z,1004.66
2022-07-25T12:02:44.168Z,1004.67
2022-07-25T12:03:45.378Z,1004.64
2022-07-25T12:04:45.501Z,1004.61
2022-07-25T12:05:45.690Z,1004.59
2022-07-25T12:06:45.863Z,1004.67
2022-07-25T12:07:45.376Z,1004.62
2022-07-25T12:08:46.750Z,1004.54